createdAt,value
2023-03-04T00:00:01.207Z,123.55
2023-03-04T00:02:28.080Z,125.35
2023-03-04T00:04:55.205Z,123.22
2023-03-04T00:07:22.144Z,122.00
2023-03-04T00:09:48.929Z,122.90
2023-03-04T00:12:15.660Z,129.35
2023-03-04T00:14:42.650Z,121.90
2023-03-04T00:17:09.465Z,121.13
2023-03-04T00:19:36.516Z,126.70
2023-03-04T00:22:04.615Z,111.43
2023-03-04T00:24:32.623Z,117.45
2023-03-04T00:26:59.658Z,117.18
2023-03-04T00:29:26.859Z,114.80
2023-03-04T00:31:54.137Z,111.30
2023-03-04T00:34:21.737Z,120.70
2023-03-04T00:36:48.634Z,116.50
2023-03-04T00:39:15.809Z,115.55
2023-03-04T00:41:42.767Z,112.80
2023-03-04T00:44:09.629Z,116.10
2023-03-04T00:46:36.550Z,102.18
2023-03-04T00:49:03.368Z,93.68
2023-03-04T00:51:30.226Z,88.10
2023-03-04T00:54:01.038Z,93.28
2023-03-04T00:56:28.250Z,85.28
2023-03-04T00:58:55.550Z,86.60
2023-03-04T01:01:22.580Z,78.90
2023-03-04T01:03:51.361Z,86.90
2023-03-04T01:06:18.288Z,90.38
2023-03-04T01:08:45.256Z,81.93
2023-03-04T01:11:12.403Z,85.13
2023-03-04T01:13:42.100Z,79.25
2023-03-04T01:16:10.300Z,77.95
2023-03-04T01:18:37.594Z,82.85
2023-03-04T01:21:04.622Z,77.97
2023-03-04T01:23:32.716Z,79.85
2023-03-04T01:25:59.600Z,73.03
2023-03-04T01:28:26.420Z,76.10
2023-03-04T01:30:53.272Z,75.60
2023-03-04T01:33:20.033Z,71.28
2023-03-04T01:35:46.916Z,76.70
2023-03-04T01:38:14.500Z,72.30
2023-03-04T01:40:41.273Z,67.07
2023-03-04T01:43:11.416Z,73.15
2023-03-04T01:45:40.268Z,76.75
2023-03-04T01:48:19.484Z,74.20
2023-03-04T01:50:46.495Z,77.18
2023-03-04T01:53:22.877Z,76.15
2023-03-04T01:55:49.972Z,67.30
2023-03-04T01:58:16.750Z,79.53
2023-03-04T02:00:43.861Z,70.10
2023-03-04T02:03:13.958Z,71.53
2023-03-04T02:05:44.116Z,77.07
2023-03-04T02:08:12.265Z,68.70
2023-03-04T02:10:41.622Z,70.32
2023-03-04T02:13:08.577Z,63.17
2023-03-04T02:15:37.632Z,66.15
2023-03-04T02:18:22.271Z,64.18
2023-03-04T02:20:54.712Z,67.63
2023-03-04T02:23:35.242Z,65.00
2023-03-04T02:26:22.364Z,67.00
2023-03-04T02:28:51.535Z,60.95
2023-03-04T02:31:21.122Z,63.17
2023-03-04T02:33:48.110Z,69.30
2023-03-04T02:36:14.911Z,63.38
2023-03-04T02:38:42.045Z,64.65
2023-03-04T02:41:13.838Z,65.70
2023-03-04T02:43:41.016Z,64.43
2023-03-04T02:46:12.602Z,62.90
2023-03-04T02:48:39.649Z,62.33
2023-03-04T02:51:06.519Z,58.00
2023-03-04T02:53:33.422Z,73.43
2023-03-04T02:56:00.562Z,60.92
2023-03-04T02:58:27.577Z,59.75
2023-03-04T03:00:54.561Z,57.75
2023-03-04T03:03:21.481Z,55.30
2023-03-04T03:05:48.466Z,60.38
2023-03-04T03:08:15.371Z,53.47
2023-03-04T03:10:42.285Z,57.78
2023-03-04T03:13:09.258Z,60.30
2023-03-04T03:15:36.519Z,55.55
2023-03-04T03:18:03.464Z,61.97
2023-03-04T03:20:30.299Z,55.10
2023-03-04T03:22:57.181Z,57.88
2023-03-04T03:25:23.963Z,55.28
2023-03-04T03:27:50.702Z,53.35
2023-03-04T03:30:17.736Z,64.15
2023-03-04T03:32:44.630Z,46.72
2023-03-04T03:35:11.896Z,53.92
2023-03-04T03:37:38.725Z,47.13
2023-03-04T03:40:05.954Z,51.10
2023-03-04T03:42:32.888Z,47.67
2023-03-04T03:44:59.826Z,45.63
2023-03-04T03:47:26.901Z,45.40
2023-03-04T03:49:53.927Z,44.95
2023-03-04T03:52:20.763Z,47.85
2023-03-04T03:54:47.538Z,44.85
2023-03-04T03:57:14.572Z,45.28
2023-03-04T03:59:41.755Z,44.25
2023-03-04T04:02:09.058Z,44.30
2023-03-04T04:04:35.927Z,45.33
2023-03-04T04:07:02.737Z,42.78
2023-03-04T04:09:29.556Z,39.28
2023-03-04T04:11:57.247Z,36.60
2023-03-04T04:14:24.155Z,39.25
2023-03-04T04:16:51.009Z,33.15
2023-03-04T04:19:19.638Z,42.55
2023-03-04T04:21:46.913Z,36.28
2023-03-04T04:24:14.153Z,40.80
2023-03-04T04:26:41.510Z,37.28
2023-03-04T04:29:09.348Z,39.53
2023-03-04T04:31:36.270Z,32.85
2023-03-04T04:34:03.160Z,28.10
2023-03-04T04:36:29.999Z,35.42
2023-03-04T04:38:57.667Z,30.40
2023-03-04T04:41:34.916Z,32.25
2023-03-04T04:44:01.728Z,32.03
2023-03-04T04:46:28.622Z,31.13
2023-03-04T04:48:56.041Z,33.47
2023-03-04T04:51:22.955Z,30.80
2023-03-04T04:53:49.891Z,32.83
2023-03-04T04:56:19.461Z,32.63
2023-03-04T04:58:47.311Z,33.33
2023-03-04T05:01:15.450Z,29.90
2023-03-04T05:03:42.711Z,30.17
2023-03-04T05:06:11.335Z,27.02
2023-03-04T05:08:38.443Z,31.05
2023-03-04T05:11:06.788Z,34.08
2023-03-04T05:13:34.281Z,28.30
2023-03-04T05:16:01.758Z,26.05
2023-03-04T05:18:29.214Z,34.95
2023-03-04T05:21:01.593Z,27.27
2023-03-04T05:23:31.254Z,26.17
2023-03-04T05:25:58.135Z,24.45
2023-03-04T05:28:24.948Z,27.48
2023-03-04T05:30:51.953Z,23.50
2023-03-04T05:33:19.771Z,25.55
2023-03-04T05:35:48.857Z,25.55
2023-03-04T05:38:17.403Z,25.40
2023-03-04T05:40:44.534Z,26.08
2023-03-04T05:43:12.495Z,31.52
2023-03-04T05:45:40.062Z,35.70
2023-03-04T05:48:07.950Z,26.08
2023-03-04T05:50:35.230Z,30.23
2023-03-04T05:53:02.006Z,29.10
2023-03-04T05:55:30.183Z,24.23
2023-03-04T05:57:57.379Z,28.83
2023-03-04T06:00:25.081Z,25.73
2023-03-04T06:02:52.418Z,25.25
2023-03-04T06:05:20.156Z,31.73
2023-03-04T06:07:47.156Z,27.08
2023-03-04T06:10:17.397Z,25.83
2023-03-04T06:12:44.269Z,26.45
2023-03-04T06:15:11.894Z,30.67
2023-03-04T06:17:42.899Z,36.70
2023-03-04T06:20:11.506Z,27.55
2023-03-04T06:22:38.581Z,31.08
2023-03-04T06:25:05.865Z,24.90
2023-03-04T06:27:32.765Z,27.63
2023-03-04T06:29:59.594Z,29.02
2023-03-04T06:32:26.646Z,28.73
2023-03-04T06:34:53.467Z,35.85
2023-03-04T06:37:20.324Z,31.67
2023-03-04T06:39:47.225Z,28.80
2023-03-04T06:42:15.134Z,28.92
2023-03-04T06:44:42.147Z,30.02
2023-03-04T06:47:09.055Z,29.48
2023-03-04T06:49:35.864Z,31.15
2023-03-04T06:52:02.826Z,29.65
2023-03-04T06:54:29.875Z,28.20
2023-03-04T06:56:56.601Z,30.42
2023-03-04T06:59:23.623Z,27.55
2023-03-04T07:01:50.542Z,28.30
2023-03-04T07:04:17.444Z,28.83
2023-03-04T07:06:44.404Z,30.30
2023-03-04T07:09:11.585Z,29.33
2023-03-04T07:11:38.441Z,33.72
2023-03-04T07:14:05.325Z,30.15
2023-03-04T07:16:32.275Z,23.52
2023-03-04T07:18:59.519Z,28.45
2023-03-04T07:21:26.323Z,31.83
2023-03-04T07:23:53.289Z,32.67
2023-03-04T07:26:20.555Z,28.23
2023-03-04T07:28:47.493Z,27.35
2023-03-04T07:31:25.321Z,34.90
2023-03-04T07:33:52.522Z,26.75
2023-03-04T07:36:20.310Z,24.00
2023-03-04T07:38:49.139Z,26.13
2023-03-04T07:41:17.009Z,28.65
2023-03-04T07:43:44.448Z,25.77
2023-03-04T07:46:11.937Z,28.58
2023-03-04T07:48:38.927Z,22.92
2023-03-04T07:51:14.175Z,25.38
2023-03-04T07:53:42.833Z,28.48
2023-03-04T07:56:13.835Z,25.20
2023-03-04T07:58:40.778Z,29.10
2023-03-04T08:01:22.028Z,33.83
2023-03-04T08:03:49.213Z,25.55
2023-03-04T08:06:19.089Z,30.23
2023-03-04T08:08:47.564Z,24.38
2023-03-04T08:11:17.620Z,31.27
2023-03-04T08:13:44.908Z,22.10
2023-03-04T08:16:16.674Z,21.70
2023-03-04T08:18:45.243Z,28.02
2023-03-04T08:21:13.756Z,25.30
2023-03-04T08:23:42.545Z,22.33
2023-03-04T08:26:13.534Z,25.27
2023-03-04T08:28:41.048Z,19.45
2023-03-04T08:31:08.365Z,23.63
2023-03-04T08:33:35.344Z,22.95
2023-03-04T08:36:02.342Z,20.35
2023-03-04T08:38:29.295Z,24.65
2023-03-04T08:40:58.408Z,18.23
2023-03-04T08:43:26.814Z,26.17
2023-03-04T08:46:07.000Z,15.52
2023-03-04T08:48:41.291Z,23.23
2023-03-04T08:51:14.260Z,24.13
2023-03-04T08:53:42.142Z,17.48
2023-03-04T08:56:15.945Z,16.35
2023-03-04T08:58:44.173Z,26.50
2023-03-04T09:01:13.170Z,24.15
2023-03-04T09:03:41.063Z,19.52
2023-03-04T09:06:18.732Z,16.27
2023-03-04T09:08:46.265Z,17.40
2023-03-04T09:11:13.667Z,15.60
2023-03-04T09:13:41.302Z,15.30
2023-03-04T09:16:12.862Z,21.13
2023-03-04T09:18:40.570Z,18.65
2023-03-04T09:21:08.871Z,25.08
2023-03-04T09:23:37.863Z,26.13
2023-03-04T09:26:34.454Z,19.55
2023-03-04T09:29:03.558Z,19.15
2023-03-04T09:31:30.972Z,13.48
2023-03-04T09:33:59.197Z,15.30
2023-03-04T09:36:27.745Z,22.52
2023-03-04T09:38:54.713Z,14.68
2023-03-04T09:41:29.808Z,16.88
2023-03-04T09:43:57.414Z,17.23
2023-03-04T09:46:45.065Z,19.58
2023-03-04T09:49:13.910Z,16.80
2023-03-04T09:52:10.194Z,22.17
2023-03-04T09:55:11.058Z,20.15
2023-03-04T09:58:05.207Z,14.98
2023-03-04T10:00:54.952Z,14.90
2023-03-04T10:03:27.904Z,15.85
2023-03-04T10:06:02.959Z,16.92
2023-03-04T10:08:36.824Z,11.05
2023-03-04T10:11:16.546Z,12.10
2023-03-04T10:13:47.281Z,21.02
2023-03-04T10:16:20.343Z,14.02
2023-03-04T10:18:56.214Z,12.82
2023-03-04T10:21:42.884Z,12.68
2023-03-04T10:24:14.806Z,11.77
2023-03-04T10:26:48.532Z,14.02
2023-03-04T10:29:22.216Z,14.07
2023-03-04T10:31:49.887Z,12.50
2023-03-04T10:34:17.853Z,10.65
2023-03-04T10:36:55.510Z,15.02
2023-03-04T10:39:27.711Z,13.73
2023-03-04T10:42:05.554Z,15.45
2023-03-04T10:44:35.623Z,11.00
2023-03-04T10:47:04.676Z,10.55
2023-03-04T10:49:36.545Z,14.60
2023-03-04T10:52:15.477Z,9.05
2023-03-04T10:54:52.431Z,10.70
2023-03-04T10:57:31.957Z,8.40
2023-03-04T11:00:00.505Z,7.88
2023-03-04T11:02:30.506Z,13.38
2023-03-04T11:05:05.405Z,8.98
2023-03-04T11:07:52.227Z,13.35
2023-03-04T11:10:30.739Z,9.88
2023-03-04T11:13:02.202Z,12.15
2023-03-04T11:15:32.620Z,7.78
2023-03-04T11:18:14.050Z,16.42
2023-03-04T11:20:49.989Z,12.45
2023-03-04T11:23:23.672Z,12.88
2023-03-04T11:25:57.710Z,8.30
2023-03-04T11:28:47.331Z,13.43
2023-03-04T11:31:28.108Z,11.73
2023-03-04T11:34:10.355Z,12.75
2023-03-04T11:37:05.245Z,20.53
2023-03-04T11:40:05.860Z,13.40
2023-03-04T11:42:49.088Z,18.38
2023-03-04T11:45:34.121Z,26.08
2023-03-04T11:48:17.700Z,20.52
2023-03-04T11:51:19.457Z,13.53
2023-03-04T11:54:00.228Z,10.88
2023-03-04T11:56:43.810Z,12.43
2023-03-04T11:59:26.125Z,13.47
2023-03-04T12:02:13.017Z,10.35
2023-03-04T12:04:39.695Z,12.77
2023-03-04T12:07:22.822Z,10.23
2023-03-04T12:10:25.614Z,11.23
2023-03-04T12:13:21.093Z,9.07
2023-03-04T12:16:01.364Z,10.98
2023-03-04T12:18:35.409Z,12.05
2023-03-04T12:21:23.828Z,11.00
2023-03-04T12:24:21.651Z,12.02
2023-03-04T12:27:26.118Z,13.18
2023-03-04T12:30:06.404Z,10.30
2023-03-04T12:33:00.379Z,10.27
2023-03-04T12:35:30.082Z,13.88
2023-03-04T12:38:18.646Z,11.82
2023-03-04T12:41:12.546Z,8.75
2023-03-04T12:44:02.130Z,8.50
2023-03-04T12:46:56.513Z,5.57
2023-03-04T12:49:39.619Z,8.70
2023-03-04T12:52:37.071Z,13.38
2023-03-04T12:55:11.945Z,11.90
2023-03-04T12:57:42.173Z,8.25
2023-03-04T13:00:27.485Z,7.93
2023-03-04T13:03:14.524Z,7.65
2023-03-04T13:05:47.366Z,8.15
2023-03-04T13:08:30.576Z,4.70
2023-03-04T13:11:26.580Z,3.67
2023-03-04T13:14:06.040Z,4.70
2023-03-04T13:16:39.054Z,8.80
2023-03-04T13:19:47.150Z,8.57
2023-03-04T13:22:34.720Z,8.38
2023-03-04T13:25:42.963Z,9.13
2023-03-04T13:28:09.777Z,10.20
2023-03-04T13:30:38.217Z,6.28
2023-03-04T13:33:17.783Z,9.07
2023-03-04T13:35:52.013Z,6.80
2023-03-04T13:38:21.950Z,4.82
2023-03-04T13:41:15.750Z,9.65
2023-03-04T13:43:53.675Z,6.88
2023-03-04T13:46:20.523Z,7.60
2023-03-04T13:48:50.561Z,8.52
2023-03-04T13:51:29.784Z,8.13
2023-03-04T13:53:59.712Z,6.90
2023-03-04T13:56:43.512Z,7.28
2023-03-04T13:59:29.652Z,5.65
2023-03-04T14:02:02.182Z,5.40
2023-03-04T14:04:40.718Z,9.48
2023-03-04T14:07:27.162Z,10.20
2023-03-04T14:10:25.971Z,14.82
2023-03-04T14:13:00.776Z,12.68
2023-03-04T14:15:35.939Z,10.30
2023-03-04T14:18:04.803Z,10.95
2023-03-04T14:20:33.271Z,7.57
2023-03-04T14:23:03.879Z,7.15
2023-03-04T14:25:35.447Z,8.07
2023-03-04T14:28:13.915Z,10.95
2023-03-04T14:30:43.996Z,5.45
2023-03-04T14:33:44.407Z,9.23
2023-03-04T14:36:18.350Z,7.32
2023-03-04T14:38:51.113Z,5.78
2023-03-04T14:41:21.654Z,2.63
2023-03-04T14:44:03.623Z,7.30
2023-03-04T14:46:47.529Z,6.25
2023-03-04T14:49:19.058Z,5.78
2023-03-04T14:51:57.836Z,4.80
2023-03-04T14:54:41.055Z,5.07
2023-03-04T14:57:21.259Z,7.55
2023-03-04T14:59:48.182Z,4.70
2023-03-04T15:02:33.337Z,7.30
2023-03-04T15:05:26.269Z,3.47
2023-03-04T15:08:20.873Z,5.80
2023-03-04T15:11:02.342Z,7.28
2023-03-04T15:13:54.758Z,6.78
2023-03-04T15:16:25.680Z,4.85
2023-03-04T15:19:02.437Z,4.20
2023-03-04T15:21:38.502Z,4.00
2023-03-04T15:24:07.051Z,6.70
2023-03-04T15:26:38.671Z,3.78
2023-03-04T15:29:19.682Z,7.07
2023-03-04T15:31:50.658Z,6.65
2023-03-04T15:34:22.042Z,5.22
2023-03-04T15:36:52.195Z,6.00
2023-03-04T15:39:21.751Z,4.40
2023-03-04T15:41:50.084Z,5.13
2023-03-04T15:44:17.395Z,13.55
2023-03-04T15:46:44.341Z,8.35
2023-03-04T15:49:11.959Z,8.75
2023-03-04T15:51:38.886Z,5.50
2023-03-04T15:54:10.946Z,7.93
2023-03-04T15:56:39.074Z,8.05
2023-03-04T15:59:17.055Z,8.68
2023-03-04T16:01:44.162Z,5.45
2023-03-04T16:04:16.796Z,6.93
2023-03-04T16:06:50.551Z,6.03
2023-03-04T16:09:19.792Z,6.72
2023-03-04T16:11:47.776Z,5.82
2023-03-04T16:14:16.369Z,8.35
2023-03-04T16:16:44.445Z,7.25
2023-03-04T16:19:11.772Z,7.88
2023-03-04T16:21:38.756Z,6.63
2023-03-04T16:24:06.060Z,10.15
2023-03-04T16:26:33.381Z,8.80
2023-03-04T16:29:01.597Z,7.05
2023-03-04T16:31:31.048Z,11.38
2023-03-04T16:33:57.878Z,6.57
2023-03-04T16:36:27.199Z,8.20
2023-03-04T16:39:02.486Z,5.75
2023-03-04T16:41:32.609Z,6.68
2023-03-04T16:44:00.897Z,6.15
2023-03-04T16:46:30.007Z,6.25
2023-03-04T16:48:56.956Z,5.63
2023-03-04T16:51:25.402Z,6.47
2023-03-04T16:54:00.384Z,7.53
2023-03-04T16:56:27.563Z,4.78
2023-03-04T16:58:54.509Z,5.45
2023-03-04T17:01:27.593Z,6.63
2023-03-04T17:04:01.031Z,5.53
2023-03-04T17:06:34.715Z,7.15
2023-03-04T17:09:01.617Z,6.38
2023-03-04T17:11:29.324Z,7.80
2023-03-04T17:13:56.446Z,8.20
2023-03-04T17:16:24.754Z,9.20
2023-03-04T17:18:51.689Z,5.53
2023-03-04T17:21:21.309Z,7.18
2023-03-04T17:23:48.350Z,8.25
2023-03-04T17:26:16.784Z,9.23
2023-03-04T17:28:43.549Z,14.30
2023-03-04T17:31:17.556Z,15.02
2023-03-04T17:33:46.290Z,11.95
2023-03-04T17:36:14.129Z,11.30
2023-03-04T17:38:43.330Z,11.80
2023-03-04T17:41:16.014Z,10.65
2023-03-04T17:43:44.626Z,13.15
2023-03-04T17:46:17.993Z,7.60
2023-03-04T17:48:44.872Z,8.13
2023-03-04T17:51:13.441Z,8.20
2023-03-04T17:53:40.643Z,9.05
2023-03-04T17:56:10.594Z,10.00
2023-03-04T17:58:37.911Z,8.60
2023-03-04T18:01:17.934Z,9.70
2023-03-04T18:03:44.804Z,11.90
2023-03-04T18:06:16.157Z,13.43
2023-03-04T18:08:43.414Z,12.65
2023-03-04T18:11:11.979Z,10.38
2023-03-04T18:13:40.312Z,11.65
2023-03-04T18:16:09.520Z,13.18
2023-03-04T18:18:38.208Z,15.18
2023-03-04T18:21:05.439Z,10.38
2023-03-04T18:23:33.183Z,11.80
2023-03-04T18:26:01.714Z,12.63
2023-03-04T18:28:28.877Z,11.98
2023-03-04T18:30:56.385Z,10.40
2023-03-04T18:33:23.289Z,14.48
2023-03-04T18:35:50.160Z,14.10
2023-03-04T18:38:19.087Z,13.73
2023-03-04T18:40:45.992Z,16.10
2023-03-04T18:43:13.043Z,12.88
2023-03-04T18:45:39.820Z,12.40
2023-03-04T18:48:06.833Z,14.23
2023-03-04T18:50:34.933Z,13.90
2023-03-04T18:53:03.340Z,12.77
2023-03-04T18:55:30.711Z,13.07
2023-03-04T18:57:58.728Z,17.35
2023-03-04T19:00:25.910Z,14.40
2023-03-04T19:03:10.040Z,16.73
2023-03-04T19:05:37.104Z,16.98
2023-03-04T19:08:05.287Z,12.20
2023-03-04T19:10:32.317Z,14.68
2023-03-04T19:12:59.718Z,13.73
2023-03-04T19:15:26.853Z,14.65
2023-03-04T19:17:53.660Z,15.20
2023-03-04T19:20:20.604Z,12.15
2023-03-04T19:22:47.865Z,10.95
2023-03-04T19:25:14.740Z,14.27
2023-03-04T19:27:42.895Z,12.73
2023-03-04T19:30:11.189Z,13.75
2023-03-04T19:32:40.457Z,16.27
2023-03-04T19:35:07.448Z,18.73
2023-03-04T19:37:34.220Z,19.27
2023-03-04T19:40:01.023Z,16.17
2023-03-04T19:42:27.951Z,19.05
2023-03-04T19:44:54.720Z,16.33
2023-03-04T19:47:22.323Z,17.80
2023-03-04T19:49:49.143Z,17.52
2023-03-04T19:52:15.969Z,13.55
2023-03-04T19:54:42.695Z,21.33
2023-03-04T19:57:09.431Z,16.35
2023-03-04T19:59:36.294Z,16.25
2023-03-04T20:02:03.446Z,17.45
2023-03-04T20:04:30.489Z,13.45
2023-03-04T20:06:57.324Z,16.98
2023-03-04T20:09:25.255Z,16.13
2023-03-04T20:11:58.905Z,15.88
2023-03-04T20:16:53.481Z,15.90
2023-03-04T20:19:20.360Z,16.50
2023-03-04T20:21:48.494Z,15.98
2023-03-04T20:24:15.437Z,19.40
2023-03-04T20:26:44.441Z,15.35
2023-03-04T20:29:12.813Z,15.82
2023-03-04T20:31:39.801Z,12.88
2023-03-04T20:34:08.679Z,14.82
2023-03-04T20:36:36.178Z,15.80
2023-03-04T20:39:08.315Z,13.73
2023-03-04T20:41:42.098Z,13.95
2023-03-04T20:44:08.887Z,14.77
2023-03-04T20:46:46.321Z,11.80
2023-03-04T20:49:22.256Z,14.63
2023-03-04T20:51:50.208Z,14.75
2023-03-04T20:54:17.432Z,13.82
2023-03-04T20:56:44.396Z,19.70
2023-03-04T20:59:14.105Z,12.50
2023-03-04T21:01:43.104Z,13.57
2023-03-04T21:04:10.016Z,11.77
2023-03-04T21:06:38.758Z,12.80
2023-03-04T21:09:09.261Z,12.52
2023-03-04T21:11:40.467Z,10.77
2023-03-04T21:14:12.366Z,11.85
2023-03-04T21:16:39.353Z,13.10
2023-03-04T21:19:06.153Z,14.40
2023-03-04T21:21:33.039Z,10.73
2023-03-04T21:23:59.817Z,10.95
2023-03-04T21:26:26.910Z,10.63
2023-03-04T21:28:54.633Z,13.50
2023-03-04T21:31:25.992Z,13.20
2023-03-04T21:50:36.720Z,6.33
2023-03-04T21:53:04.701Z,11.43
2023-03-04T21:55:31.926Z,9.63
2023-03-04T21:57:58.685Z,9.00
2023-03-04T22:00:25.876Z,8.07
2023-03-04T22:02:52.672Z,7.60
2023-03-04T22:05:19.714Z,9.63
2023-03-04T22:07:46.780Z,11.25
2023-03-04T22:10:13.548Z,10.15
2023-03-04T22:12:41.603Z,8.93
2023-03-04T22:15:09.273Z,7.68
2023-03-04T22:17:36.022Z,7.45
2023-03-04T22:20:07.122Z,8.50
2023-03-04T22:22:33.887Z,9.52
2023-03-04T22:25:00.806Z,9.43
2023-03-04T22:27:27.577Z,11.93
2023-03-04T22:29:57.188Z,9.65
2023-03-04T22:32:24.186Z,7.10
2023-03-04T22:34:51.112Z,11.55
2023-03-04T22:37:17.944Z,8.02
2023-03-04T22:39:44.647Z,7.30
2023-03-04T22:42:11.543Z,8.00
2023-03-04T22:44:38.296Z,8.70
2023-03-04T22:47:05.257Z,10.10
2023-03-04T22:49:33.303Z,7.93
2023-03-04T22:52:01.425Z,8.20
2023-03-04T22:54:29.675Z,6.63
2023-03-04T22:56:56.512Z,8.35
2023-03-04T22:59:24.948Z,9.52
2023-03-04T23:01:51.726Z,5.35
2023-03-04T23:04:18.576Z,9.48
2023-03-04T23:06:45.472Z,5.25
2023-03-04T23:09:12.276Z,8.90
2023-03-04T23:11:39.640Z,9.65
2023-03-04T23:14:08.027Z,11.70
2023-03-04T23:16:38.691Z,8.30
2023-03-04T23:19:06.372Z,8.98
2023-03-04T23:21:34.039Z,8.60
2023-03-04T23:24:06.852Z,8.80
2023-03-04T23:26:36.655Z,6.95
2023-03-04T23:29:06.397Z,4.70
2023-03-04T23:31:34.657Z,6.85
2023-03-04T23:34:02.883Z,6.57
2023-03-04T23:36:33.057Z,7.45
2023-03-04T23:39:00.775Z,5.70
2023-03-04T23:41:29.864Z,5.85
2023-03-04T23:43:59.211Z,10.55
2023-03-04T23:46:27.898Z,10.20
2023-03-04T23:48:55.317Z,10.10
2023-03-04T23:51:25.089Z,5.82
2023-03-04T23:53:52.244Z,7.10
2023-03-04T23:56:22.181Z,12.38
2023-03-04T23:58:49.829Z,7.55
